sensor_id;sensor_type;location;lat;lon;timestamp;P1;durP1;ratioP1;P2;durP2;ratioP2
46651;SDS011;32377;52.182;5.398;2023-04-10T00:00:04;37.20;;;22.92;;
46651;SDS011;32377;52.182;5.398;2023-04-10T00:02:31;36.03;;;22.20;;
46651;SDS011;32377;52.182;5.398;2023-04-10T00:04:58;34.35;;;21.90;;
46651;SDS011;32377;52.182;5.398;2023-04-10T00:07:24;35.97;;;22.13;;
46651;SDS011;32377;52.182;5.398;2023-04-10T00:09:50;39.58;;;21.58;;
46651;SDS011;32377;52.182;5.398;2023-04-10T00:12:16;31.48;;;20.20;;
46651;SDS011;32377;52.182;5.398;2023-04-10T00:14:41;38.42;;;20.85;;
46651;SDS011;32377;52.182;5.398;2023-04-10T00:17:07;34.78;;;20.52;;
46651;SDS011;32377;52.182;5.398;2023-04-10T00:19:33;31.70;;;19.70;;
46651;SDS011;32377;52.182;5.398;2023-04-10T00:21:58;31.88;;;18.90;;
46651;SDS011;32377;52.182;5.398;2023-04-10T00:24:24;31.73;;;19.58;;
46651;SDS011;32377;52.182;5.398;2023-04-10T00:26:50;28.65;;;18.30;;
46651;SDS011;32377;52.182;5.398;2023-04-10T00:29:16;30.98;;;18.63;;
46651;SDS011;32377;52.182;5.398;2023-04-10T00:31:42;29.67;;;19.02;;
46651;SDS011;32377;52.182;5.398;2023-04-10T00:34:07;29.85;;;19.02;;
46651;SDS011;32377;52.182;5.398;2023-04-10T00:36:33;31.30;;;18.52;;
46651;SDS011;32377;52.182;5.398;2023-04-10T00:38:59;30.05;;;18.70;;
46651;SDS011;32377;52.182;5.398;2023-04-10T00:41:25;29.75;;;18.60;;
46651;SDS011;32377;52.182;5.398;2023-04-10T00:43:54;27.73;;;18.50;;
46651;SDS011;32377;52.182;5.398;2023-04-10T00:46:24;26.45;;;17.88;;
46651;SDS011;32377;52.182;5.398;2023-04-10T00:48:50;29.50;;;18.05;;
46651;SDS011;32377;52.182;5.398;2023-04-10T00:51:16;27.25;;;17.63;;
46651;SDS011;32377;52.182;5.398;2023-04-10T00:53:44;29.73;;;18.00;;
46651;SDS011;32377;52.182;5.398;2023-04-10T00:56:17;30.15;;;17.52;;
46651;SDS011;32377;52.182;5.398;2023-04-10T00:58:43;27.05;;;16.58;;
46651;SDS011;32377;52.182;5.398;2023-04-10T01:01:09;26.92;;;17.33;;
46651;SDS011;32377;52.182;5.398;2023-04-10T01:03:35;24.95;;;16.13;;
46651;SDS011;32377;52.182;5.398;2023-04-10T01:08:49;24.17;;;16.63;;
46651;SDS011;32377;52.182;5.398;2023-04-10T01:19:56;21.70;;;14.73;;
46651;SDS011;32377;52.182;5.398;2023-04-10T01:25:42;23.60;;;14.52;;
46651;SDS011;32377;52.182;5.398;2023-04-10T01:30:51;20.75;;;14.05;;
46651;SDS011;32377;52.182;5.398;2023-04-10T01:33:21;19.58;;;13.23;;
46651;SDS011;32377;52.182;5.398;2023-04-10T01:35:54;20.38;;;13.65;;
46651;SDS011;32377;52.182;5.398;2023-04-10T01:38:23;21.05;;;14.07;;
46651;SDS011;32377;52.182;5.398;2023-04-10T01:40:51;20.90;;;13.60;;
46651;SDS011;32377;52.182;5.398;2023-04-10T01:43:19;19.98;;;12.90;;
46651;SDS011;32377;52.182;5.398;2023-04-10T01:45:47;19.23;;;12.52;;
46651;SDS011;32377;52.182;5.398;2023-04-10T01:48:15;18.42;;;12.38;;
46651;SDS011;32377;52.182;5.398;2023-04-10T01:50:42;18.52;;;12.52;;
46651;SDS011;32377;52.182;5.398;2023-04-10T01:53:10;17.77;;;11.98;;
46651;SDS011;32377;52.182;5.398;2023-04-10T01:55:36;17.80;;;12.32;;
46651;SDS011;32377;52.182;5.398;2023-04-10T01:58:03;20.92;;;12.32;;
46651;SDS011;32377;52.182;5.398;2023-04-10T02:00:37;16.77;;;11.75;;
46651;SDS011;32377;52.182;5.398;2023-04-10T02:03:05;15.82;;;11.00;;
46651;SDS011;32377;52.182;5.398;2023-04-10T02:05:33;21.63;;;11.82;;
46651;SDS011;32377;52.182;5.398;2023-04-10T02:08:11;17.30;;;11.77;;
46651;SDS011;32377;52.182;5.398;2023-04-10T02:10:50;15.48;;;11.05;;
46651;SDS011;32377;52.182;5.398;2023-04-10T02:13:22;16.13;;;11.15;;
46651;SDS011;32377;52.182;5.398;2023-04-10T02:15:51;17.98;;;11.05;;
46651;SDS011;32377;52.182;5.398;2023-04-10T02:18:21;17.90;;;10.68;;
46651;SDS011;32377;52.182;5.398;2023-04-10T02:20:48;18.40;;;10.95;;
46651;SDS011;32377;52.182;5.398;2023-04-10T02:23:14;17.83;;;10.98;;
46651;SDS011;32377;52.182;5.398;2023-04-10T02:25:41;17.80;;;10.90;;
46651;SDS011;32377;52.182;5.398;2023-04-10T02:28:07;19.50;;;11.90;;
46651;SDS011;32377;52.182;5.398;2023-04-10T02:30:33;16.10;;;10.75;;
46651;SDS011;32377;52.182;5.398;2023-04-10T02:32:59;18.33;;;11.07;;
46651;SDS011;32377;52.182;5.398;2023-04-10T02:35:25;15.43;;;10.23;;
46651;SDS011;32377;52.182;5.398;2023-04-10T02:37:53;19.70;;;11.55;;
46651;SDS011;32377;52.182;5.398;2023-04-10T02:40:18;16.98;;;10.95;;
46651;SDS011;32377;52.182;5.398;2023-04-10T02:42:44;15.45;;;10.18;;
46651;SDS011;32377;52.182;5.398;2023-04-10T02:45:10;17.08;;;10.48;;
46651;SDS011;32377;52.182;5.398;2023-04-10T02:47:36;16.48;;;10.63;;
46651;SDS011;32377;52.182;5.398;2023-04-10T02:50:01;17.33;;;10.48;;
46651;SDS011;32377;52.182;5.398;2023-04-10T02:52:27;18.33;;;11.20;;
46651;SDS011;32377;52.182;5.398;2023-04-10T02:54:52;17.38;;;10.00;;
46651;SDS011;32377;52.182;5.398;2023-04-10T02:57:18;15.65;;;10.38;;
46651;SDS011;32377;52.182;5.398;2023-04-10T02:59:43;17.23;;;10.93;;
46651;SDS011;32377;52.182;5.398;2023-04-10T03:02:09;16.10;;;10.77;;
46651;SDS011;32377;52.182;5.398;2023-04-10T03:04:35;14.48;;;10.18;;
46651;SDS011;32377;52.182;5.398;2023-04-10T03:07:01;16.85;;;10.27;;
46651;SDS011;32377;52.182;5.398;2023-04-10T03:09:27;18.00;;;10.35;;
46651;SDS011;32377;52.182;5.398;2023-04-10T03:11:53;15.05;;;10.38;;
46651;SDS011;32377;52.182;5.398;2023-04-10T03:14:18;15.32;;;10.80;;
46651;SDS011;32377;52.182;5.398;2023-04-10T03:16:44;14.80;;;10.45;;
46651;SDS011;32377;52.182;5.398;2023-04-10T03:19:11;16.63;;;10.70;;
46651;SDS011;32377;52.182;5.398;2023-04-10T03:21:37;16.98;;;10.23;;
46651;SDS011;32377;52.182;5.398;2023-04-10T03:24:03;15.98;;;10.38;;
46651;SDS011;32377;52.182;5.398;2023-04-10T03:26:30;16.20;;;11.05;;
46651;SDS011;32377;52.182;5.398;2023-04-10T03:28:55;14.85;;;9.98;;
46651;SDS011;32377;52.182;5.398;2023-04-10T03:31:21;16.75;;;11.13;;
46651;SDS011;32377;52.182;5.398;2023-04-10T03:33:47;15.65;;;10.73;;
46651;SDS011;32377;52.182;5.398;2023-04-10T03:36:13;17.98;;;11.15;;
46651;SDS011;32377;52.182;5.398;2023-04-10T03:38:38;18.23;;;10.73;;
46651;SDS011;32377;52.182;5.398;2023-04-10T03:41:04;15.88;;;9.93;;
46651;SDS011;32377;52.182;5.398;2023-04-10T03:43:30;17.60;;;9.80;;
46651;SDS011;32377;52.182;5.398;2023-04-10T03:45:56;17.63;;;11.48;;
46651;SDS011;32377;52.182;5.398;2023-04-10T03:48:22;16.70;;;10.82;;
46651;SDS011;32377;52.182;5.398;2023-04-10T03:50:47;17.88;;;11.00;;
46651;SDS011;32377;52.182;5.398;2023-04-10T03:53:13;14.82;;;9.65;;
46651;SDS011;32377;52.182;5.398;2023-04-10T03:55:39;15.77;;;10.43;;
46651;SDS011;32377;52.182;5.398;2023-04-10T03:59:17;15.00;;;10.13;;
46651;SDS011;32377;52.182;5.398;2023-04-10T04:01:42;15.73;;;11.15;;
46651;SDS011;32377;52.182;5.398;2023-04-10T04:04:08;14.93;;;10.20;;
46651;SDS011;32377;52.182;5.398;2023-04-10T04:06:33;17.52;;;10.23;;
46651;SDS011;32377;52.182;5.398;2023-04-10T04:08:59;17.83;;;11.23;;
46651;SDS011;32377;52.182;5.398;2023-04-10T04:11:25;15.63;;;10.02;;
46651;SDS011;32377;52.182;5.398;2023-04-10T04:13:51;16.40;;;10.52;;
46651;SDS011;32377;52.182;5.398;2023-04-10T04:16:17;17.73;;;10.90;;
46651;SDS011;32377;52.182;5.398;2023-04-10T04:18:42;15.80;;;11.23;;
46651;SDS011;32377;52.182;5.398;2023-04-10T04:21:08;15.43;;;9.93;;
46651;SDS011;32377;52.182;5.398;2023-04-10T04:23:34;13.57;;;9.60;;
46651;SDS011;32377;52.182;5.398;2023-04-10T04:25:59;17.67;;;10.43;;
46651;SDS011;32377;52.182;5.398;2023-04-10T04:28:25;16.13;;;10.90;;
46651;SDS011;32377;52.182;5.398;2023-04-10T04:30:51;14.07;;;10.05;;
46651;SDS011;32377;52.182;5.398;2023-04-10T04:33:17;17.50;;;11.75;;
46651;SDS011;32377;52.182;5.398;2023-04-10T04:35:42;15.05;;;10.32;;
46651;SDS011;32377;52.182;5.398;2023-04-10T04:38:08;14.85;;;10.23;;
46651;SDS011;32377;52.182;5.398;2023-04-10T04:40:33;18.88;;;11.63;;
46651;SDS011;32377;52.182;5.398;2023-04-10T04:42:59;16.95;;;11.25;;
46651;SDS011;32377;52.182;5.398;2023-04-10T04:45:25;16.05;;;10.90;;
46651;SDS011;32377;52.182;5.398;2023-04-10T04:47:50;16.60;;;10.30;;
46651;SDS011;32377;52.182;5.398;2023-04-10T04:50:16;16.42;;;11.60;;
46651;SDS011;32377;52.182;5.398;2023-04-10T04:52:42;17.08;;;11.73;;
46651;SDS011;32377;52.182;5.398;2023-04-10T04:55:08;17.13;;;10.93;;
46651;SDS011;32377;52.182;5.398;2023-04-10T04:57:34;20.40;;;12.32;;
46651;SDS011;32377;52.182;5.398;2023-04-10T04:59:59;18.52;;;12.75;;
46651;SDS011;32377;52.182;5.398;2023-04-10T05:02:25;18.92;;;12.05;;
46651;SDS011;32377;52.182;5.398;2023-04-10T05:04:50;18.33;;;12.02;;
46651;SDS011;32377;52.182;5.398;2023-04-10T05:07:16;19.05;;;12.18;;
46651;SDS011;32377;52.182;5.398;2023-04-10T05:09:42;19.40;;;13.00;;
46651;SDS011;32377;52.182;5.398;2023-04-10T05:12:07;19.17;;;12.68;;
46651;SDS011;32377;52.182;5.398;2023-04-10T05:14:33;19.30;;;11.73;;
46651;SDS011;32377;52.182;5.398;2023-04-10T05:16:58;21.15;;;11.85;;
46651;SDS011;32377;52.182;5.398;2023-04-10T05:19:24;17.52;;;12.07;;
46651;SDS011;32377;52.182;5.398;2023-04-10T05:21:50;18.10;;;12.00;;
46651;SDS011;32377;52.182;5.398;2023-04-10T05:24:15;15.27;;;11.20;;
46651;SDS011;32377;52.182;5.398;2023-04-10T05:26:41;17.92;;;11.93;;
46651;SDS011;32377;52.182;5.398;2023-04-10T05:29:07;21.42;;;12.55;;
46651;SDS011;32377;52.182;5.398;2023-04-10T05:31:32;21.63;;;11.77;;
46651;SDS011;32377;52.182;5.398;2023-04-10T05:33:58;19.77;;;12.43;;
46651;SDS011;32377;52.182;5.398;2023-04-10T05:36:23;17.80;;;11.73;;
46651;SDS011;32377;52.182;5.398;2023-04-10T05:38:49;18.40;;;11.68;;
46651;SDS011;32377;52.182;5.398;2023-04-10T05:41:15;16.90;;;11.32;;
46651;SDS011;32377;52.182;5.398;2023-04-10T05:43:41;18.98;;;11.82;;
46651;SDS011;32377;52.182;5.398;2023-04-10T05:46:06;18.77;;;11.77;;
46651;SDS011;32377;52.182;5.398;2023-04-10T05:48:32;16.92;;;10.75;;
46651;SDS011;32377;52.182;5.398;2023-04-10T05:50:57;16.98;;;10.95;;
46651;SDS011;32377;52.182;5.398;2023-04-10T05:53:26;19.10;;;12.40;;
46651;SDS011;32377;52.182;5.398;2023-04-10T05:55:56;15.63;;;10.18;;
46651;SDS011;32377;52.182;5.398;2023-04-10T05:58:23;16.67;;;11.43;;
46651;SDS011;32377;52.182;5.398;2023-04-10T06:00:52;17.63;;;10.90;;
46651;SDS011;32377;52.182;5.398;2023-04-10T06:03:18;17.17;;;11.73;;
46651;SDS011;32377;52.182;5.398;2023-04-10T06:05:44;14.23;;;10.30;;
46651;SDS011;32377;52.182;5.398;2023-04-10T06:08:10;16.77;;;11.43;;
46651;SDS011;32377;52.182;5.398;2023-04-10T06:10:36;15.73;;;10.60;;
46651;SDS011;32377;52.182;5.398;2023-04-10T06:13:02;18.60;;;11.82;;
46651;SDS011;32377;52.182;5.398;2023-04-10T06:15:27;16.83;;;11.13;;
46651;SDS011;32377;52.182;5.398;2023-04-10T06:17:53;18.42;;;10.98;;
46651;SDS011;32377;52.182;5.398;2023-04-10T06:20:19;18.05;;;11.73;;
46651;SDS011;32377;52.182;5.398;2023-04-10T06:22:45;16.10;;;11.02;;
46651;SDS011;32377;52.182;5.398;2023-04-10T06:25:11;18.20;;;10.88;;
46651;SDS011;32377;52.182;5.398;2023-04-10T06:27:37;16.75;;;10.98;;
46651;SDS011;32377;52.182;5.398;2023-04-10T06:30:02;17.52;;;10.80;;
46651;SDS011;32377;52.182;5.398;2023-04-10T06:32:28;16.65;;;10.85;;
46651;SDS011;32377;52.182;5.398;2023-04-10T06:34:54;14.18;;;10.27;;
46651;SDS011;32377;52.182;5.398;2023-04-10T06:37:25;17.88;;;11.95;;
46651;SDS011;32377;52.182;5.398;2023-04-10T06:40:00;16.40;;;11.23;;
46651;SDS011;32377;52.182;5.398;2023-04-10T06:42:35;15.98;;;11.10;;
46651;SDS011;32377;52.182;5.398;2023-04-10T06:45:02;17.95;;;11.85;;
46651;SDS011;32377;52.182;5.398;2023-04-10T06:47:28;18.52;;;11.32;;
46651;SDS011;32377;52.182;5.398;2023-04-10T06:49:55;18.20;;;11.35;;
46651;SDS011;32377;52.182;5.398;2023-04-10T06:52:21;17.20;;;10.68;;
46651;SDS011;32377;52.182;5.398;2023-04-10T06:54:47;17.55;;;11.00;;
46651;SDS011;32377;52.182;5.398;2023-04-10T06:57:12;15.93;;;10.93;;
46651;SDS011;32377;52.182;5.398;2023-04-10T06:59:38;16.20;;;10.80;;
46651;SDS011;32377;52.182;5.398;2023-04-10T07:02:04;16.40;;;10.50;;
46651;SDS011;32377;52.182;5.398;2023-04-10T07:04:30;16.42;;;11.20;;
46651;SDS011;32377;52.182;5.398;2023-04-10T07:06:56;17.00;;;10.02;;
46651;SDS011;32377;52.182;5.398;2023-04-10T07:09:23;14.52;;;9.93;;
46651;SDS011;32377;52.182;5.398;2023-04-10T07:11:50;13.40;;;9.48;;
46651;SDS011;32377;52.182;5.398;2023-04-10T07:14:16;14.20;;;10.15;;
46651;SDS011;32377;52.182;5.398;2023-04-10T07:16:42;16.77;;;10.18;;
46651;SDS011;32377;52.182;5.398;2023-04-10T07:19:07;18.42;;;10.90;;
46651;SDS011;32377;52.182;5.398;2023-04-10T07:21:33;15.50;;;10.52;;
46651;SDS011;32377;52.182;5.398;2023-04-10T07:23:58;15.25;;;10.40;;
46651;SDS011;32377;52.182;5.398;2023-04-10T07:26:24;14.68;;;10.13;;
46651;SDS011;32377;52.182;5.398;2023-04-10T07:28:50;17.58;;;10.00;;
46651;SDS011;32377;52.182;5.398;2023-04-10T07:31:15;17.40;;;10.45;;
46651;SDS011;32377;52.182;5.398;2023-04-10T07:33:42;14.80;;;10.15;;
46651;SDS011;32377;52.182;5.398;2023-04-10T07:36:09;14.00;;;10.13;;
46651;SDS011;32377;52.182;5.398;2023-04-10T07:38:35;13.10;;;10.00;;
46651;SDS011;32377;52.182;5.398;2023-04-10T07:41:01;15.07;;;10.23;;
46651;SDS011;32377;52.182;5.398;2023-04-10T07:43:27;12.68;;;9.80;;
46651;SDS011;32377;52.182;5.398;2023-04-10T07:45:53;13.15;;;9.05;;
46651;SDS011;32377;52.182;5.398;2023-04-10T07:48:19;14.02;;;8.65;;
46651;SDS011;32377;52.182;5.398;2023-04-10T07:50:45;15.50;;;9.32;;
46651;SDS011;32377;52.182;5.398;2023-04-10T07:53:10;12.90;;;8.95;;
46651;SDS011;32377;52.182;5.398;2023-04-10T07:55:40;12.00;;;9.23;;
46651;SDS011;32377;52.182;5.398;2023-04-10T07:58:06;12.45;;;9.23;;
46651;SDS011;32377;52.182;5.398;2023-04-10T08:00:32;13.65;;;9.35;;
46651;SDS011;32377;52.182;5.398;2023-04-10T08:02:58;14.40;;;10.43;;
46651;SDS011;32377;52.182;5.398;2023-04-10T08:05:24;12.68;;;9.75;;
46651;SDS011;32377;52.182;5.398;2023-04-10T08:07:50;14.73;;;10.13;;
46651;SDS011;32377;52.182;5.398;2023-04-10T08:10:16;13.45;;;9.38;;
46651;SDS011;32377;52.182;5.398;2023-04-10T08:12:41;13.90;;;10.15;;
46651;SDS011;32377;52.182;5.398;2023-04-10T08:15:07;16.20;;;9.85;;
46651;SDS011;32377;52.182;5.398;2023-04-10T08:17:33;14.30;;;10.02;;
46651;SDS011;32377;52.182;5.398;2023-04-10T08:19:58;13.27;;;9.68;;
46651;SDS011;32377;52.182;5.398;2023-04-10T08:22:24;13.68;;;9.68;;
46651;SDS011;32377;52.182;5.398;2023-04-10T08:24:49;14.27;;;10.30;;
46651;SDS011;32377;52.182;5.398;2023-04-10T08:27:15;15.50;;;10.45;;
46651;SDS011;32377;52.182;5.398;2023-04-10T08:29:41;16.45;;;9.68;;
46651;SDS011;32377;52.182;5.398;2023-04-10T08:32:07;12.90;;;9.45;;
46651;SDS011;32377;52.182;5.398;2023-04-10T08:34:33;14.75;;;10.45;;
46651;SDS011;32377;52.182;5.398;2023-04-10T08:36:58;15.27;;;10.13;;
46651;SDS011;32377;52.182;5.398;2023-04-10T08:39:24;12.20;;;9.38;;
46651;SDS011;32377;52.182;5.398;2023-04-10T08:41:50;12.52;;;9.68;;
46651;SDS011;32377;52.182;5.398;2023-04-10T08:44:15;16.25;;;10.15;;
46651;SDS011;32377;52.182;5.398;2023-04-10T08:46:42;16.70;;;10.60;;
46651;SDS011;32377;52.182;5.398;2023-04-10T08:49:09;14.38;;;9.88;;
46651;SDS011;32377;52.182;5.398;2023-04-10T08:51:42;14.65;;;10.90;;
46651;SDS011;32377;52.182;5.398;2023-04-10T08:54:17;14.70;;;10.45;;
46651;SDS011;32377;52.182;5.398;2023-04-10T08:56:49;16.73;;;11.70;;
46651;SDS011;32377;52.182;5.398;2023-04-10T08:59:17;16.45;;;11.07;;
46651;SDS011;32377;52.182;5.398;2023-04-10T09:01:43;15.57;;;10.95;;
46651;SDS011;32377;52.182;5.398;2023-04-10T09:04:10;16.25;;;10.57;;
46651;SDS011;32377;52.182;5.398;2023-04-10T09:06:37;14.82;;;10.98;;
46651;SDS011;32377;52.182;5.398;2023-04-10T09:09:04;16.73;;;11.02;;
46651;SDS011;32377;52.182;5.398;2023-04-10T09:14:25;16.63;;;11.38;;
46651;SDS011;32377;52.182;5.398;2023-04-10T09:16:53;14.23;;;10.07;;
46651;SDS011;32377;52.182;5.398;2023-04-10T09:19:34;14.18;;;10.77;;
46651;SDS011;32377;52.182;5.398;2023-04-10T09:21:59;16.00;;;10.40;;
46651;SDS011;32377;52.182;5.398;2023-04-10T09:24:25;16.33;;;11.27;;
46651;SDS011;32377;52.182;5.398;2023-04-10T09:26:51;15.75;;;10.55;;
46651;SDS011;32377;52.182;5.398;2023-04-10T09:29:17;17.67;;;10.57;;
46651;SDS011;32377;52.182;5.398;2023-04-10T09:31:43;14.68;;;10.50;;
46651;SDS011;32377;52.182;5.398;2023-04-10T09:34:16;15.38;;;10.82;;
46651;SDS011;32377;52.182;5.398;2023-04-10T09:37:04;13.23;;;10.32;;
46651;SDS011;32377;52.182;5.398;2023-04-10T09:39:33;15.65;;;10.02;;
46651;SDS011;32377;52.182;5.398;2023-04-10T09:42:00;11.38;;;9.20;;
46651;SDS011;32377;52.182;5.398;2023-04-10T09:44:30;14.15;;;10.20;;
46651;SDS011;32377;52.182;5.398;2023-04-10T09:47:18;14.90;;;10.77;;
46651;SDS011;32377;52.182;5.398;2023-04-10T09:49:47;14.55;;;9.98;;
46651;SDS011;32377;52.182;5.398;2023-04-10T09:52:16;16.27;;;10.02;;
46651;SDS011;32377;52.182;5.398;2023-04-10T09:54:42;15.93;;;10.68;;
46651;SDS011;32377;52.182;5.398;2023-04-10T09:59:16;17.33;;;10.27;;
46651;SDS011;32377;52.182;5.398;2023-04-10T10:01:43;13.30;;;10.07;;
46651;SDS011;32377;52.182;5.398;2023-04-10T10:04:09;15.85;;;10.38;;
46651;SDS011;32377;52.182;5.398;2023-04-10T10:06:36;16.30;;;10.77;;
46651;SDS011;32377;52.182;5.398;2023-04-10T10:09:03;15.27;;;9.90;;
46651;SDS011;32377;52.182;5.398;2023-04-10T10:11:31;16.05;;;10.32;;
46651;SDS011;32377;52.182;5.398;2023-04-10T10:14:06;12.63;;;9.65;;
46651;SDS011;32377;52.182;5.398;2023-04-10T10:16:45;14.25;;;9.90;;
46651;SDS011;32377;52.182;5.398;2023-04-10T10:19:17;17.25;;;10.95;;
46651;SDS011;32377;52.182;5.398;2023-04-10T10:21:51;14.55;;;9.55;;
46651;SDS011;32377;52.182;5.398;2023-04-10T10:24:18;18.75;;;10.55;;
46651;SDS011;32377;52.182;5.398;2023-04-10T10:26:45;14.23;;;9.52;;
46651;SDS011;32377;52.182;5.398;2023-04-10T10:29:11;12.15;;;9.10;;
46651;SDS011;32377;52.182;5.398;2023-04-10T10:31:41;14.07;;;10.25;;
46651;SDS011;32377;52.182;5.398;2023-04-10T10:34:07;12.05;;;9.25;;
46651;SDS011;32377;52.182;5.398;2023-04-10T10:36:37;15.60;;;10.35;;
46651;SDS011;32377;52.182;5.398;2023-04-10T10:41:43;16.08;;;10.30;;
46651;SDS011;32377;52.182;5.398;2023-04-10T10:44:22;14.88;;;10.25;;
46651;SDS011;32377;52.182;5.398;2023-04-10T10:49:50;12.13;;;9.60;;
46651;SDS011;32377;52.182;5.398;2023-04-10T11:00:13;13.00;;;9.43;;
46651;SDS011;32377;52.182;5.398;2023-04-10T11:02:39;13.60;;;9.15;;
46651;SDS011;32377;52.182;5.398;2023-04-10T11:05:05;13.77;;;9.23;;
46651;SDS011;32377;52.182;5.398;2023-04-10T11:13:34;12.85;;;8.95;;
46651;SDS011;32377;52.182;5.398;2023-04-10T11:16:07;12.18;;;7.88;;
46651;SDS011;32377;52.182;5.398;2023-04-10T11:21:21;10.98;;;8.20;;
46651;SDS011;32377;52.182;5.398;2023-04-10T11:26:49;12.88;;;8.38;;
46651;SDS011;32377;52.182;5.398;2023-04-10T11:31:41;14.77;;;8.05;;
46651;SDS011;32377;52.182;5.398;2023-04-10T11:34:08;12.82;;;8.32;;
46651;SDS011;32377;52.182;5.398;2023-04-10T11:36:37;12.75;;;8.57;;
46651;SDS011;32377;52.182;5.398;2023-04-10T11:39:08;11.00;;;8.25;;
46651;SDS011;32377;52.182;5.398;2023-04-10T11:41:38;12.48;;;8.20;;
46651;SDS011;32377;52.182;5.398;2023-04-10T11:44:08;9.68;;;7.57;;
46651;SDS011;32377;52.182;5.398;2023-04-10T11:46:36;12.15;;;8.52;;
46651;SDS011;32377;52.182;5.398;2023-04-10T11:49:06;9.57;;;8.05;;
46651;SDS011;32377;52.182;5.398;2023-04-10T11:51:36;10.95;;;8.02;;
46651;SDS011;32377;52.182;5.398;2023-04-10T11:54:06;11.85;;;8.23;;
46651;SDS011;32377;52.182;5.398;2023-04-10T11:56:33;10.93;;;8.60;;
46651;SDS011;32377;52.182;5.398;2023-04-10T11:59:00;10.48;;;8.80;;
46651;SDS011;32377;52.182;5.398;2023-04-10T12:01:31;12.48;;;8.48;;
46651;SDS011;32377;52.182;5.398;2023-04-10T12:03:56;10.40;;;8.40;;
46651;SDS011;32377;52.182;5.398;2023-04-10T12:06:22;11.07;;;8.00;;
46651;SDS011;32377;52.182;5.398;2023-04-10T12:08:48;12.00;;;8.13;;
46651;SDS011;32377;52.182;5.398;2023-04-10T12:11:18;12.57;;;8.07;;
46651;SDS011;32377;52.182;5.398;2023-04-10T12:13:45;12.02;;;8.05;;
46651;SDS011;32377;52.182;5.398;2023-04-10T12:16:14;10.77;;;7.68;;
46651;SDS011;32377;52.182;5.398;2023-04-10T12:18:40;9.85;;;7.80;;
46651;SDS011;32377;52.182;5.398;2023-04-10T12:21:06;9.50;;;7.38;;
46651;SDS011;32377;52.182;5.398;2023-04-10T12:23:32;9.60;;;6.90;;
46651;SDS011;32377;52.182;5.398;2023-04-10T12:26:12;11.02;;;8.02;;
46651;SDS011;32377;52.182;5.398;2023-04-10T12:28:50;14.95;;;9.35;;
46651;SDS011;32377;52.182;5.398;2023-04-10T12:31:27;13.70;;;6.72;;
46651;SDS011;32377;52.182;5.398;2023-04-10T12:33:54;15.45;;;6.90;;
46651;SDS011;32377;52.182;5.398;2023-04-10T12:36:25;65.32;;;8.48;;
46651;SDS011;32377;52.182;5.398;2023-04-10T12:38:54;25.58;;;6.00;;
46651;SDS011;32377;52.182;5.398;2023-04-10T12:41:24;117.00;;;10.27;;
46651;SDS011;32377;52.182;5.398;2023-04-10T12:43:53;17.42;;;6.63;;
46651;SDS011;32377;52.182;5.398;2023-04-10T12:46:38;13.18;;;5.60;;
46651;SDS011;32377;52.182;5.398;2023-04-10T12:49:11;6.35;;;5.13;;
46651;SDS011;32377;52.182;5.398;2023-04-10T12:54:12;6.35;;;5.18;;
46651;SDS011;32377;52.182;5.398;2023-04-10T12:57:01;8.05;;;5.07;;
46651;SDS011;32377;52.182;5.398;2023-04-10T12:59:31;6.80;;;5.00;;
46651;SDS011;32377;52.182;5.398;2023-04-10T13:01:56;6.60;;;4.70;;
46651;SDS011;32377;52.182;5.398;2023-04-10T13:04:22;6.93;;;4.75;;
46651;SDS011;32377;52.182;5.398;2023-04-10T13:06:48;6.20;;;4.82;;
46651;SDS011;32377;52.182;5.398;2023-04-10T13:09:17;7.22;;;4.95;;
46651;SDS011;32377;52.182;5.398;2023-04-10T13:11:42;6.35;;;4.75;;
46651;SDS011;32377;52.182;5.398;2023-04-10T13:14:08;8.77;;;4.63;;
46651;SDS011;32377;52.182;5.398;2023-04-10T13:16:35;7.63;;;4.18;;
46651;SDS011;32377;52.182;5.398;2023-04-10T13:19:00;6.78;;;4.15;;
46651;SDS011;32377;52.182;5.398;2023-04-10T13:21:26;6.35;;;4.50;;
46651;SDS011;32377;52.182;5.398;2023-04-10T13:23:56;5.70;;;4.30;;
46651;SDS011;32377;52.182;5.398;2023-04-10T13:26:22;4.63;;;3.72;;
46651;SDS011;32377;52.182;5.398;2023-04-10T13:28:48;4.93;;;4.00;;
46651;SDS011;32377;52.182;5.398;2023-04-10T13:31:14;5.72;;;4.20;;
46651;SDS011;32377;52.182;5.398;2023-04-10T13:33:40;5.50;;;3.88;;
46651;SDS011;32377;52.182;5.398;2023-04-10T13:36:10;5.43;;;4.05;;
46651;SDS011;32377;52.182;5.398;2023-04-10T13:38:35;6.72;;;4.47;;
46651;SDS011;32377;52.182;5.398;2023-04-10T13:41:01;5.95;;;4.10;;
46651;SDS011;32377;52.182;5.398;2023-04-10T13:43:26;6.72;;;4.30;;
46651;SDS011;32377;52.182;5.398;2023-04-10T13:45:52;6.32;;;4.00;;
46651;SDS011;32377;52.182;5.398;2023-04-10T13:48:17;6.35;;;4.40;;
46651;SDS011;32377;52.182;5.398;2023-04-10T13:50:45;8.77;;;4.82;;
46651;SDS011;32377;52.182;5.398;2023-04-10T13:53:10;12.32;;;4.78;;
46651;SDS011;32377;52.182;5.398;2023-04-10T13:55:36;5.97;;;4.95;;
46651;SDS011;32377;52.182;5.398;2023-04-10T13:58:02;7.53;;;4.43;;
46651;SDS011;32377;52.182;5.398;2023-04-10T14:00:28;6.32;;;4.88;;
46651;SDS011;32377;52.182;5.398;2023-04-10T14:02:54;6.80;;;5.10;;
46651;SDS011;32377;52.182;5.398;2023-04-10T14:05:19;7.25;;;4.85;;
46651;SDS011;32377;52.182;5.398;2023-04-10T14:07:45;6.47;;;4.82;;
46651;SDS011;32377;52.182;5.398;2023-04-10T14:10:10;7.95;;;5.30;;
46651;SDS011;32377;52.182;5.398;2023-04-10T14:12:36;9.55;;;5.70;;
46651;SDS011;32377;52.182;5.398;2023-04-10T14:15:02;6.82;;;5.30;;
46651;SDS011;32377;52.182;5.398;2023-04-10T14:17:27;7.97;;;5.00;;
46651;SDS011;32377;52.182;5.398;2023-04-10T14:19:53;8.75;;;5.68;;
46651;SDS011;32377;52.182;5.398;2023-04-10T14:22:19;6.93;;;5.72;;
46651;SDS011;32377;52.182;5.398;2023-04-10T14:24:45;13.32;;;5.47;;
46651;SDS011;32377;52.182;5.398;2023-04-10T14:27:10;7.90;;;5.95;;
46651;SDS011;32377;52.182;5.398;2023-04-10T14:29:37;6.90;;;5.65;;
46651;SDS011;32377;52.182;5.398;2023-04-10T14:32:02;7.07;;;6.05;;
46651;SDS011;32377;52.182;5.398;2023-04-10T14:34:28;7.82;;;5.78;;
46651;SDS011;32377;52.182;5.398;2023-04-10T14:36:53;8.52;;;6.13;;
46651;SDS011;32377;52.182;5.398;2023-04-10T14:39:21;7.43;;;5.72;;
46651;SDS011;32377;52.182;5.398;2023-04-10T14:41:49;8.48;;;6.10;;
46651;SDS011;32377;52.182;5.398;2023-04-10T14:44:16;10.05;;;5.72;;
46651;SDS011;32377;52.182;5.398;2023-04-10T14:46:42;8.02;;;6.00;;
46651;SDS011;32377;52.182;5.398;2023-04-10T14:49:08;7.80;;;5.65;;
46651;SDS011;32377;52.182;5.398;2023-04-10T14:51:33;10.80;;;6.47;;
46651;SDS011;32377;52.182;5.398;2023-04-10T14:53:59;7.80;;;6.05;;
46651;SDS011;32377;52.182;5.398;2023-04-10T14:56:25;8.23;;;5.95;;
46651;SDS011;32377;52.182;5.398;2023-04-10T14:58:50;10.98;;;6.30;;
46651;SDS011;32377;52.182;5.398;2023-04-10T15:01:16;9.80;;;6.93;;
46651;SDS011;32377;52.182;5.398;2023-04-10T15:03:45;9.48;;;6.93;;
46651;SDS011;32377;52.182;5.398;2023-04-10T15:06:11;13.45;;;7.28;;
46651;SDS011;32377;52.182;5.398;2023-04-10T15:08:37;7.75;;;6.70;;
46651;SDS011;32377;52.182;5.398;2023-04-10T15:11:03;12.18;;;7.18;;
46651;SDS011;32377;52.182;5.398;2023-04-10T15:13:32;10.98;;;7.10;;
46651;SDS011;32377;52.182;5.398;2023-04-10T15:15:57;12.68;;;7.85;;
46651;SDS011;32377;52.182;5.398;2023-04-10T15:18:24;12.75;;;9.02;;
46651;SDS011;32377;52.182;5.398;2023-04-10T15:20:50;10.23;;;7.35;;